sensor_id;sensor_type;location;lat;lon;timestamp;P1;durP1;ratioP1;P2;durP2;ratioP2
20161;SDS011;51382;53.180;15.414;2022-08-21T00:15:00;53.90;;;13.60;;
20161;SDS011;51382;53.180;15.414;2022-08-21T00:30:09;56.50;;;13.60;;
20161;SDS011;51382;53.180;15.414;2022-08-21T00:45:20;50.40;;;14.40;;
20161;SDS011;51382;53.180;15.414;2022-08-21T01:00:35;39.10;;;10.20;;
20161;SDS011;51382;53.180;15.414;2022-08-21T01:15:50;33.60;;;7.40;;
20161;SDS011;51382;53.180;15.414;2022-08-21T01:31:04;38.70;;;7.60;;
20161;SDS011;51382;53.180;15.414;2022-08-21T01:46:15;40.70;;;7.10;;
20161;SDS011;51382;53.180;15.414;2022-08-21T02:01:26;36.50;;;5.90;;
20161;SDS011;51382;53.180;15.414;2022-08-21T02:16:37;30.80;;;5.50;;
20161;SDS011;51382;53.180;15.414;2022-08-21T02:31:44;39.20;;;6.20;;
20161;SDS011;51382;53.180;15.414;2022-08-21T02:46:50;38.90;;;6.00;;
20161;SDS011;51382;53.180;15.414;2022-08-21T03:02:01;31.40;;;5.40;;
20161;SDS011;51382;53.180;15.414;2022-08-21T03:17:12;41.60;;;6.10;;
20161;SDS011;51382;53.180;15.414;2022-08-21T03:32:23;32.40;;;4.90;;
20161;SDS011;51382;53.180;15.414;2022-08-21T03:47:34;32.10;;;4.40;;
20161;SDS011;51382;53.180;15.414;2022-08-21T04:02:45;34.00;;;4.50;;
20161;SDS011;51382;53.180;15.414;2022-08-21T04:17:57;43.50;;;5.30;;
20161;SDS011;51382;53.180;15.414;2022-08-21T04:33:08;25.80;;;4.30;;
20161;SDS011;51382;53.180;15.414;2022-08-21T04:48:21;33.80;;;4.60;;
20161;SDS011;51382;53.180;15.414;2022-08-21T05:03:34;26.00;;;3.60;;
20161;SDS011;51382;53.180;15.414;2022-08-21T05:18:46;32.80;;;4.40;;
20161;SDS011;51382;53.180;15.414;2022-08-21T05:33:57;29.70;;;4.00;;
20161;SDS011;51382;53.180;15.414;2022-08-21T05:49:08;28.10;;;4.00;;
20161;SDS011;51382;53.180;15.414;2022-08-21T06:04:19;24.10;;;3.50;;
20161;SDS011;51382;53.180;15.414;2022-08-21T06:19:30;24.40;;;3.90;;
20161;SDS011;51382;53.180;15.414;2022-08-21T06:34:39;29.00;;;4.10;;
20161;SDS011;51382;53.180;15.414;2022-08-21T06:49:50;34.40;;;4.50;;
20161;SDS011;51382;53.180;15.414;2022-08-21T07:05:02;29.70;;;4.20;;
20161;SDS011;51382;53.180;15.414;2022-08-21T07:20:13;47.60;;;6.20;;
20161;SDS011;51382;53.180;15.414;2022-08-21T07:35:24;34.60;;;5.60;;
20161;SDS011;51382;53.180;15.414;2022-08-21T07:50:37;34.70;;;5.60;;
20161;SDS011;51382;53.180;15.414;2022-08-21T08:05:48;35.50;;;5.50;;
20161;SDS011;51382;53.180;15.414;2022-08-21T08:20:59;29.60;;;5.10;;
20161;SDS011;51382;53.180;15.414;2022-08-21T08:36:15;40.90;;;5.90;;
20161;SDS011;51382;53.180;15.414;2022-08-21T08:51:25;41.00;;;6.40;;
20161;SDS011;51382;53.180;15.414;2022-08-21T09:06:46;29.80;;;5.00;;
20161;SDS011;51382;53.180;15.414;2022-08-21T09:22:17;28.10;;;5.10;;
20161;SDS011;51382;53.180;15.414;2022-08-21T09:37:31;22.40;;;4.10;;
20161;SDS011;51382;53.180;15.414;2022-08-21T09:52:44;25.20;;;3.80;;
20161;SDS011;51382;53.180;15.414;2022-08-21T10:07:56;18.50;;;3.60;;
20161;SDS011;51382;53.180;15.414;2022-08-21T10:23:21;28.90;;;4.70;;
20161;SDS011;51382;53.180;15.414;2022-08-21T10:38:55;31.20;;;4.50;;
20161;SDS011;51382;53.180;15.414;2022-08-21T10:54:17;30.60;;;4.00;;
20161;SDS011;51382;53.180;15.414;2022-08-21T11:09:27;29.80;;;3.90;;
20161;SDS011;51382;53.180;15.414;2022-08-21T11:24:42;29.50;;;3.80;;
20161;SDS011;51382;53.180;15.414;2022-08-21T11:40:03;27.00;;;3.30;;
20161;SDS011;51382;53.180;15.414;2022-08-21T11:55:20;51.40;;;5.50;;
20161;SDS011;51382;53.180;15.414;2022-08-21T12:10:37;26.30;;;3.30;;
20161;SDS011;51382;53.180;15.414;2022-08-21T12:25:47;45.70;;;5.10;;
20161;SDS011;51382;53.180;15.414;2022-08-21T12:41:00;30.30;;;3.80;;
20161;SDS011;51382;53.180;15.414;2022-08-21T12:56:11;55.80;;;5.30;;
20161;SDS011;51382;53.180;15.414;2022-08-21T13:11:20;22.50;;;2.60;;
20161;SDS011;51382;53.180;15.414;2022-08-21T13:26:37;59.80;;;5.70;;
20161;SDS011;51382;53.180;15.414;2022-08-21T13:41:56;21.70;;;2.70;;
20161;SDS011;51382;53.180;15.414;2022-08-21T13:57:17;22.80;;;2.60;;
20161;SDS011;51382;53.180;15.414;2022-08-21T14:12:29;42.60;;;4.40;;
20161;SDS011;51382;53.180;15.414;2022-08-21T14:27:44;29.50;;;3.40;;
20161;SDS011;51382;53.180;15.414;2022-08-21T14:42:59;24.50;;;2.80;;
20161;SDS011;51382;53.180;15.414;2022-08-21T14:58:06;35.50;;;3.90;;
20161;SDS011;51382;53.180;15.414;2022-08-21T15:13:17;27.40;;;3.20;;
20161;SDS011;51382;53.180;15.414;2022-08-21T15:28:29;35.20;;;3.50;;
20161;SDS011;51382;53.180;15.414;2022-08-21T15:43:44;25.80;;;3.00;;
20161;SDS011;51382;53.180;15.414;2022-08-21T15:59:00;28.10;;;3.40;;
20161;SDS011;51382;53.180;15.414;2022-08-21T16:14:14;23.80;;;2.80;;
20161;SDS011;51382;53.180;15.414;2022-08-21T16:29:20;33.30;;;3.90;;
20161;SDS011;51382;53.180;15.414;2022-08-21T16:44:31;21.20;;;2.50;;
20161;SDS011;51382;53.180;15.414;2022-08-21T16:59:44;31.40;;;3.50;;
20161;SDS011;51382;53.180;15.414;2022-08-21T17:14:50;44.90;;;4.40;;
20161;SDS011;51382;53.180;15.414;2022-08-21T17:30:01;59.00;;;5.70;;
20161;SDS011;51382;53.180;15.414;2022-08-21T17:45:16;46.10;;;4.50;;
20161;SDS011;51382;53.180;15.414;2022-08-21T18:00:30;28.70;;;3.30;;
20161;SDS011;51382;53.180;15.414;2022-08-21T18:15:43;40.40;;;4.30;;
20161;SDS011;51382;53.180;15.414;2022-08-21T18:30:55;35.10;;;3.40;;
20161;SDS011;51382;53.180;15.414;2022-08-21T18:46:02;36.10;;;4.20;;
20161;SDS011;51382;53.180;15.414;2022-08-21T19:01:08;31.80;;;3.80;;
20161;SDS011;51382;53.180;15.414;2022-08-21T19:16:21;39.50;;;4.20;;
20161;SDS011;51382;53.180;15.414;2022-08-21T19:31:38;26.60;;;3.50;;
20161;SDS011;51382;53.180;15.414;2022-08-21T19:46:53;29.60;;;4.90;;
20161;SDS011;51382;53.180;15.414;2022-08-21T20:02:02;34.10;;;4.50;;
20161;SDS011;51382;53.180;15.414;2022-08-21T20:17:15;37.60;;;4.70;;
20161;SDS011;51382;53.180;15.414;2022-08-21T20:32:22;37.00;;;4.70;;
20161;SDS011;51382;53.180;15.414;2022-08-21T20:47:33;35.40;;;4.40;;
20161;SDS011;51382;53.180;15.414;2022-08-21T21:02:49;40.00;;;3.90;;
20161;SDS011;51382;53.180;15.414;2022-08-21T21:18:03;42.90;;;4.60;;
20161;SDS011;51382;53.180;15.414;2022-08-21T21:33:17;56.40;;;4.30;;
20161;SDS011;51382;53.180;15.414;2022-08-21T21:48:34;27.80;;;3.40;;
20161;SDS011;51382;53.180;15.414;2022-08-21T22:03:48;26.90;;;3.00;;
20161;SDS011;51382;53.180;15.414;2022-08-21T22:19:10;19.60;;;2.50;;
20161;SDS011;51382;53.180;15.414;2022-08-21T22:34:23;24.40;;;3.50;;
20161;SDS011;51382;53.180;15.414;2022-08-21T22:49:40;21.40;;;2.90;;
20161;SDS011;51382;53.180;15.414;2022-08-21T23:04:52;25.70;;;3.70;;
20161;SDS011;51382;53.180;15.414;2022-08-21T23:20:11;28.40;;;3.50;;
20161;SDS011;51382;53.180;15.414;2022-08-21T23:35:34;32.50;;;2.50;;
20161;SDS011;51382;53.180;15.414;2022-08-21T23:51:02;27.30;;;3.40;;
